createdAt,value
2018-09-06T00:00:21.296Z,11.28
2018-09-06T00:02:50.957Z,12.35
2018-09-06T00:05:31.247Z,11.68
2018-09-06T00:07:59.513Z,12.55
2018-09-06T00:10:27.785Z,12.35
2018-09-06T00:13:08.268Z,12.58
2018-09-06T00:15:48.877Z,12.65
2018-09-06T00:18:29.369Z,11.78
2018-09-06T00:21:09.927Z,15.05
2018-09-06T00:23:50.570Z,13.05
2018-09-06T00:26:31.157Z,13.53
2018-09-06T00:29:11.860Z,12.00
2018-09-06T00:31:52.544Z,11.60
2018-09-06T00:34:33.134Z,12.90
2018-09-06T00:37:01.357Z,12.15
2018-09-06T00:39:41.505Z,12.05
2018-09-06T00:42:22.074Z,11.35
2018-09-06T00:44:50.316Z,12.47
2018-09-06T00:47:19.024Z,12.23
2018-09-06T00:50:00.002Z,11.28
2018-09-06T00:52:29.222Z,12.93
2018-09-06T00:55:09.465Z,13.83
2018-09-06T00:57:50.092Z,13.15
2018-09-06T01:00:30.731Z,12.10
2018-09-06T01:02:59.001Z,13.65
2018-09-06T01:05:39.233Z,13.48
2018-09-06T01:08:19.853Z,12.30
2018-09-06T01:10:51.240Z,13.43
2018-09-06T01:13:20.420Z,17.70
2018-09-06T01:15:48.705Z,15.10
2018-09-06T01:18:16.934Z,12.93
2018-09-06T01:20:48.557Z,13.70
2018-09-06T01:23:29.181Z,15.38
2018-09-06T01:25:58.452Z,13.40
2018-09-06T01:28:26.710Z,13.32
2018-09-06T01:31:01.065Z,12.75
2018-09-06T01:33:42.240Z,12.63
2018-09-06T01:36:16.098Z,14.03
2018-09-06T01:38:56.760Z,13.32
2018-09-06T01:41:37.288Z,13.90
2018-09-06T01:44:09.457Z,14.05
2018-09-06T01:46:49.627Z,13.93
2018-09-06T01:49:30.608Z,14.20
2018-09-06T01:51:58.849Z,14.20
2018-09-06T01:54:27.121Z,15.00
2018-09-06T01:56:56.233Z,13.90
2018-09-06T01:59:24.490Z,14.58
2018-09-06T02:01:54.046Z,13.93
2018-09-06T02:04:35.135Z,15.13
2018-09-06T02:07:15.826Z,15.65
2018-09-06T02:09:57.373Z,13.53
2018-09-06T02:12:25.764Z,13.35
2018-09-06T02:14:54.063Z,15.48
2018-09-06T02:17:34.721Z,14.40
2018-09-06T02:20:15.320Z,14.23
2018-09-06T02:22:55.928Z,14.58
2018-09-06T02:25:36.428Z,15.85
2018-09-06T02:28:17.085Z,15.63
2018-09-06T02:30:57.562Z,16.50
2018-09-06T02:33:38.186Z,17.25
2018-09-06T02:36:19.562Z,15.88
2018-09-06T02:39:00.432Z,14.75
2018-09-06T02:41:35.863Z,16.55
2018-09-06T02:44:09.061Z,15.65
2018-09-06T02:46:38.740Z,15.98
2018-09-06T02:49:24.419Z,16.02
2018-09-06T02:52:05.034Z,15.95
2018-09-06T02:54:45.691Z,16.80
2018-09-06T02:57:26.325Z,14.23
2018-09-06T02:59:55.103Z,16.57
2018-09-06T03:02:35.635Z,16.75
2018-09-06T03:05:03.947Z,16.40
2018-09-06T03:07:32.312Z,17.70
2018-09-06T03:10:01.029Z,15.98
2018-09-06T03:12:29.214Z,16.32
2018-09-06T03:15:09.436Z,16.93
2018-09-06T03:17:37.723Z,17.07
2018-09-06T03:20:05.989Z,15.98
2018-09-06T03:22:35.428Z,16.62
2018-09-06T03:25:15.576Z,15.28
2018-09-06T03:27:56.238Z,15.13
2018-09-06T03:30:37.014Z,15.20
2018-09-06T03:33:17.637Z,16.97
2018-09-06T03:35:58.299Z,17.17
2018-09-06T03:38:27.987Z,16.35
2018-09-06T03:41:08.753Z,17.65
2018-09-06T03:43:43.417Z,17.17
2018-09-06T03:46:13.142Z,18.80
2018-09-06T03:48:42.510Z,16.50
2018-09-06T03:51:10.721Z,17.12
2018-09-06T03:53:39.528Z,17.35
2018-09-06T03:56:20.083Z,16.65
2018-09-06T03:59:00.532Z,16.80
2018-09-06T04:01:41.063Z,18.42
2018-09-06T04:04:21.741Z,17.55
2018-09-06T04:07:02.319Z,18.15
2018-09-06T04:09:30.581Z,18.92
2018-09-06T04:12:10.852Z,17.95
2018-09-06T04:14:51.640Z,19.62
2018-09-06T04:17:32.482Z,20.52
2018-09-06T04:20:13.020Z,18.92
2018-09-06T04:22:53.528Z,19.00
2018-09-06T04:25:34.369Z,20.20
2018-09-06T04:28:02.684Z,22.60
2018-09-06T04:30:30.932Z,18.90
2018-09-06T04:33:11.085Z,20.77
2018-09-06T04:35:51.795Z,19.48
2018-09-06T04:38:20.095Z,23.83
2018-09-06T04:41:00.329Z,19.98
2018-09-06T04:43:41.087Z,22.58
2018-09-06T04:46:21.466Z,19.15
2018-09-06T04:48:49.742Z,20.45
2018-09-06T04:51:30.852Z,25.27
2018-09-06T04:53:59.109Z,19.07
2018-09-06T04:56:39.333Z,23.52
2018-09-06T04:59:19.989Z,20.05
2018-09-06T05:02:00.560Z,20.70
2018-09-06T05:04:41.127Z,19.42
2018-09-06T05:07:21.769Z,20.37
2018-09-06T05:10:02.454Z,22.07
2018-09-06T05:12:30.768Z,21.17
2018-09-06T05:14:59.049Z,22.37
2018-09-06T05:17:28.241Z,21.82
2018-09-06T05:19:56.481Z,21.12
2018-09-06T05:22:28.401Z,22.42
2018-09-06T05:26:26.262Z,22.85
2018-09-06T05:29:02.902Z,20.92
2018-09-06T05:31:38.237Z,23.83
2018-09-06T05:34:18.621Z,21.30
2018-09-06T05:36:59.204Z,23.75
2018-09-06T05:39:40.072Z,21.90
2018-09-06T05:42:08.616Z,22.77
2018-09-06T05:44:49.748Z,21.23
2018-09-06T05:47:30.106Z,20.15
2018-09-06T05:49:58.373Z,23.40
2018-09-06T05:52:38.505Z,22.37
2018-09-06T05:55:19.314Z,29.27
2018-09-06T05:58:00.135Z,25.55
2018-09-06T06:00:33.701Z,21.20
2018-09-06T06:03:14.524Z,26.20
2018-09-06T06:05:55.301Z,25.82
2018-09-06T06:08:35.192Z,23.60
2018-09-06T06:11:15.633Z,24.60
2018-09-06T06:13:43.902Z,24.12
2018-09-06T06:16:13.198Z,23.70
2018-09-06T06:18:41.472Z,26.33
2018-09-06T06:21:09.781Z,21.02
2018-09-06T06:23:38.029Z,30.08
2018-09-06T06:26:07.066Z,23.87
2018-09-06T06:28:37.617Z,23.40
2018-09-06T06:31:05.908Z,26.40
2018-09-06T06:33:46.561Z,22.73
2018-09-06T06:36:27.243Z,24.47
2018-09-06T06:39:07.915Z,23.40
2018-09-06T06:41:36.140Z,28.47
2018-09-06T06:44:16.502Z,36.38
2018-09-06T06:46:44.763Z,26.97
2018-09-06T06:49:25.837Z,28.30
2018-09-06T06:51:54.113Z,25.90
2018-09-06T06:54:23.973Z,28.85
2018-09-06T06:57:04.138Z,26.12
2018-09-06T06:59:32.401Z,29.72
2018-09-06T07:02:16.515Z,24.52
2018-09-06T07:04:54.985Z,28.00
2018-09-06T07:07:23.668Z,51.88
2018-09-06T07:09:52.465Z,29.40
2018-09-06T07:12:21.242Z,29.50
2018-09-06T07:14:49.779Z,27.67
2018-09-06T07:17:18.168Z,28.32
2018-09-06T07:19:46.581Z,31.70
2018-09-06T07:22:15.078Z,32.00
2018-09-06T07:24:46.530Z,33.48
2018-09-06T07:27:14.805Z,26.25
2018-09-06T07:29:48.852Z,27.20
2018-09-06T07:32:18.660Z,25.70
2018-09-06T07:34:46.920Z,29.10
2018-09-06T07:37:15.304Z,28.57
2018-09-06T07:39:45.369Z,25.37
2018-09-06T07:42:15.708Z,29.85
2018-09-06T07:44:47.520Z,25.65
2018-09-06T07:47:16.550Z,23.45
2018-09-06T07:49:46.504Z,23.20
2018-09-06T07:52:16.454Z,26.50
2018-09-06T07:54:45.684Z,24.47
2018-09-06T07:57:14.032Z,21.60
2018-09-06T07:59:42.408Z,21.97
2018-09-06T08:02:23.565Z,21.42
2018-09-06T08:04:51.905Z,22.65
2018-09-06T08:07:32.740Z,20.65
2018-09-06T08:10:13.259Z,23.10
2018-09-06T08:12:53.858Z,23.77
2018-09-06T08:15:22.141Z,20.15
2018-09-06T08:17:54.408Z,19.48
2018-09-06T08:20:34.897Z,18.85
2018-09-06T08:23:15.652Z,19.67
2018-09-06T08:25:56.425Z,19.70
2018-09-06T08:28:26.604Z,18.95
2018-09-06T08:31:06.911Z,18.50
2018-09-06T08:33:47.469Z,19.60
2018-09-06T08:36:16.654Z,18.35
2018-09-06T08:38:56.931Z,20.68
2018-09-06T08:41:37.977Z,20.15
2018-09-06T08:44:19.207Z,17.62
2018-09-06T08:46:47.507Z,20.45
2018-09-06T08:49:28.373Z,19.87
2018-09-06T08:52:09.020Z,18.65
2018-09-06T08:54:49.733Z,19.90
2018-09-06T08:57:30.330Z,19.25
2018-09-06T09:00:00.171Z,26.80
2018-09-06T09:02:28.634Z,17.77
2018-09-06T09:05:08.642Z,17.67
2018-09-06T09:07:36.999Z,19.05
2018-09-06T09:10:17.221Z,17.40
2018-09-06T09:12:57.850Z,21.02
2018-09-06T09:15:38.491Z,16.97
2018-09-06T09:18:19.253Z,17.52
2018-09-06T09:20:59.759Z,24.90
2018-09-06T09:23:40.346Z,19.55
2018-09-06T09:26:08.616Z,17.23
2018-09-06T09:28:49.709Z,17.85
2018-09-06T09:31:30.239Z,16.90
2018-09-06T09:33:58.965Z,17.98
2018-09-06T09:36:27.210Z,15.05
2018-09-06T09:39:08.897Z,16.27
2018-09-06T09:41:49.891Z,17.52
2018-09-06T09:44:30.650Z,18.23
2018-09-06T09:49:39.131Z,17.70
2018-09-06T09:52:08.056Z,16.73
2018-09-06T09:54:48.505Z,15.80
2018-09-06T09:57:16.981Z,16.10
2018-09-06T09:59:57.829Z,16.42
2018-09-06T10:02:33.819Z,15.98
2018-09-06T10:05:07.904Z,17.00
2018-09-06T10:07:41.617Z,14.83
2018-09-06T10:10:21.861Z,14.20
2018-09-06T10:12:50.108Z,16.27
2018-09-06T10:15:19.352Z,14.10
2018-09-06T10:18:00.174Z,15.05
2018-09-06T10:20:28.431Z,15.15
2018-09-06T10:23:08.823Z,15.75
2018-09-06T10:25:37.599Z,14.35
2018-09-06T10:28:18.851Z,12.63
2018-09-06T10:30:51.700Z,14.20
2018-09-06T10:33:21.337Z,14.28
2018-09-06T10:36:02.255Z,10.68
2018-09-06T10:38:43.123Z,12.15
2018-09-06T10:41:11.469Z,13.13
2018-09-06T10:43:52.428Z,10.33
2018-09-06T10:46:33.140Z,13.10
2018-09-06T10:49:13.776Z,13.37
2018-09-06T10:51:42.490Z,10.70
2018-09-06T10:54:23.293Z,10.80
2018-09-06T10:56:51.677Z,11.40
2018-09-06T10:59:19.914Z,10.30
2018-09-06T11:02:02.463Z,12.10
2018-09-06T11:04:43.365Z,11.60
2018-09-06T11:07:25.413Z,10.90
2018-09-06T11:10:06.656Z,10.73
2018-09-06T11:12:47.405Z,12.17
2018-09-06T11:15:28.250Z,13.17
2018-09-06T11:18:08.551Z,12.00
2018-09-06T11:20:36.787Z,9.53
2018-09-06T11:23:16.997Z,8.43
2018-09-06T11:25:59.592Z,8.83
2018-09-06T11:28:40.313Z,8.50
2018-09-06T11:31:08.585Z,9.90
2018-09-06T11:33:49.774Z,10.23
2018-09-06T11:36:30.362Z,8.60
2018-09-06T11:39:11.233Z,9.50
2018-09-06T11:41:51.787Z,11.73
2018-09-06T11:44:20.136Z,10.37
2018-09-06T11:46:54.183Z,10.40
2018-09-06T11:49:22.398Z,10.07
2018-09-06T11:51:57.565Z,9.90
2018-09-06T11:54:30.863Z,9.17
2018-09-06T11:57:11.651Z,9.80
2018-09-06T11:59:53.242Z,10.60
2018-09-06T12:02:21.559Z,10.17
2018-09-06T12:04:49.801Z,11.20
2018-09-06T12:07:31.134Z,10.73
2018-09-06T12:10:11.917Z,13.63
2018-09-06T12:12:40.220Z,9.67
2018-09-06T12:15:08.658Z,9.87
2018-09-06T12:17:36.955Z,9.20
2018-09-06T12:20:05.253Z,10.70
2018-09-06T12:22:46.385Z,9.87
2018-09-06T12:25:26.862Z,9.20
2018-09-06T12:27:55.597Z,9.20
2018-09-06T12:30:23.868Z,11.63
2018-09-06T12:33:04.324Z,9.77
2018-09-06T12:35:44.896Z,14.23
2018-09-06T12:38:25.448Z,9.47
2018-09-06T12:40:53.731Z,9.00
2018-09-06T12:43:34.864Z,9.75
2018-09-06T12:46:15.546Z,16.48
2018-09-06T12:48:56.141Z,10.13
2018-09-06T12:51:36.791Z,11.00
2018-09-06T12:54:17.461Z,9.38
2018-09-06T12:56:45.667Z,11.60
2018-09-06T12:59:14.076Z,10.65
2018-09-06T13:01:42.375Z,9.83
2018-09-06T13:04:23.529Z,9.85
2018-09-06T13:06:52.285Z,9.43
2018-09-06T13:09:32.654Z,14.35
2018-09-06T13:12:00.964Z,12.47
2018-09-06T13:14:41.975Z,12.95
2018-09-06T13:17:11.305Z,10.20
2018-09-06T13:19:51.886Z,9.40
2018-09-06T13:22:32.480Z,10.18
2018-09-06T13:25:13.012Z,14.00
2018-09-06T13:27:53.706Z,9.55
2018-09-06T13:30:34.380Z,9.55
2018-09-06T13:33:14.943Z,9.63
2018-09-06T13:35:55.731Z,8.88
2018-09-06T13:38:24.087Z,10.90
2018-09-06T13:41:04.989Z,9.28
2018-09-06T13:43:45.581Z,9.25
2018-09-06T13:46:13.846Z,13.72
2018-09-06T13:48:54.080Z,21.65
2018-09-06T13:51:22.503Z,9.48
2018-09-06T13:53:50.891Z,12.65
2018-09-06T13:56:31.534Z,8.90
2018-09-06T13:59:12.353Z,9.78
2018-09-06T14:01:40.759Z,9.98
2018-09-06T14:04:21.403Z,10.98
2018-09-06T14:07:01.973Z,8.65
2018-09-06T14:09:31.120Z,10.78
2018-09-06T14:12:11.439Z,10.08
2018-09-06T14:14:39.854Z,10.98
2018-09-06T14:17:08.673Z,9.20
2018-09-06T14:19:49.431Z,9.13
2018-09-06T14:22:24.253Z,10.32
2018-09-06T14:25:05.458Z,9.00
2018-09-06T14:27:33.803Z,12.35
2018-09-06T14:30:02.257Z,11.75
2018-09-06T14:32:31.156Z,11.25
2018-09-06T14:34:59.573Z,11.33
2018-09-06T14:37:28.061Z,10.70
2018-09-06T14:39:56.522Z,10.03
2018-09-06T14:42:24.983Z,10.90
2018-09-06T14:44:54.354Z,12.20
2018-09-06T14:47:22.820Z,10.43
2018-09-06T14:49:51.171Z,15.15
2018-09-06T14:52:19.906Z,10.93
2018-09-06T14:54:48.137Z,10.82
2018-09-06T14:57:16.411Z,10.55
2018-09-06T14:59:44.698Z,12.75
2018-09-06T15:02:16.331Z,10.50
2018-09-06T15:04:56.519Z,11.08
2018-09-06T15:07:31.074Z,10.88
2018-09-06T15:10:11.270Z,12.88
2018-09-06T15:12:39.561Z,12.47
2018-09-06T15:15:07.857Z,11.38
2018-09-06T15:17:36.336Z,12.47
2018-09-06T15:20:18.661Z,11.12
2018-09-06T15:22:47.015Z,10.75
2018-09-06T15:25:15.225Z,9.58
2018-09-06T15:27:49.636Z,10.80
2018-09-06T15:30:30.085Z,11.90
2018-09-06T15:32:58.393Z,8.85
2018-09-06T15:35:38.673Z,9.33
2018-09-06T15:38:19.164Z,10.65
2018-09-06T15:40:59.749Z,9.98
2018-09-06T15:43:28.073Z,65.67
2018-09-06T15:46:09.173Z,12.88
2018-09-06T15:48:49.696Z,11.33
2018-09-06T15:51:30.521Z,11.78
2018-09-06T15:54:11.229Z,13.00
2018-09-06T15:56:51.994Z,12.40
2018-09-06T15:59:32.657Z,11.57
2018-09-06T16:02:13.454Z,17.67
2018-09-06T16:04:54.454Z,12.55
2018-09-06T16:07:35.948Z,11.90
2018-09-06T16:10:04.787Z,14.00
2018-09-06T16:12:33.384Z,14.43
2018-09-06T16:15:02.688Z,12.37
2018-09-06T16:17:34.341Z,15.93
2018-09-06T16:20:02.708Z,19.30
2018-09-06T16:22:43.761Z,15.72
2018-09-06T16:25:14.664Z,12.00
2018-09-06T16:27:55.708Z,11.22
2018-09-06T16:30:24.216Z,15.03
2018-09-06T16:32:54.620Z,11.65
2018-09-06T16:35:35.701Z,10.78
2018-09-06T16:38:16.277Z,13.48
2018-09-06T16:40:56.736Z,11.88
2018-09-06T16:43:37.565Z,12.45
2018-09-06T16:46:05.879Z,11.70
2018-09-06T16:48:34.171Z,15.98
2018-09-06T16:51:02.493Z,13.75
2018-09-06T16:53:30.802Z,11.10
2018-09-06T16:55:59.050Z,11.28
2018-09-06T16:58:39.660Z,11.75
2018-09-06T17:01:22.248Z,12.93
2018-09-06T17:04:02.403Z,12.35
2018-09-06T17:06:43.203Z,14.70
2018-09-06T17:09:23.829Z,15.63
2018-09-06T17:11:52.194Z,12.30
2018-09-06T17:14:32.871Z,10.80
2018-09-06T17:17:13.586Z,28.57
2018-09-06T17:19:53.987Z,13.65
2018-09-06T17:22:34.537Z,13.83
2018-09-06T17:25:15.138Z,12.13
2018-09-06T17:27:55.736Z,12.65
2018-09-06T17:30:36.337Z,12.18
2018-09-06T17:33:06.648Z,11.20
2018-09-06T17:35:34.919Z,17.02
2018-09-06T17:38:03.811Z,11.48
2018-09-06T17:40:34.017Z,10.58
2018-09-06T17:43:04.114Z,13.00
2018-09-06T17:45:33.545Z,11.70
2018-09-06T17:48:14.473Z,16.52
2018-09-06T17:50:42.754Z,16.55
2018-09-06T17:53:14.700Z,13.90
2018-09-06T17:55:46.989Z,12.07
2018-09-06T17:58:15.404Z,12.03
2018-09-06T18:00:56.579Z,12.90
2018-09-06T18:03:37.033Z,13.83
2018-09-06T18:06:18.740Z,16.97
2018-09-06T18:08:47.053Z,13.75
2018-09-06T18:11:28.689Z,12.60
2018-09-06T18:14:10.177Z,13.22
2018-09-06T18:16:38.489Z,13.20
2018-09-06T18:19:06.765Z,16.07
2018-09-06T18:21:46.912Z,25.70
2018-09-06T18:24:28.321Z,14.75
2018-09-06T18:26:56.614Z,13.85
2018-09-06T18:29:37.240Z,12.25
2018-09-06T18:32:17.985Z,13.35
2018-09-06T18:34:58.570Z,11.60
2018-09-06T18:37:39.159Z,14.40
2018-09-06T18:40:19.716Z,14.65
2018-09-06T18:43:00.224Z,17.42
2018-09-06T18:45:28.542Z,42.05
2018-09-06T18:48:09.418Z,14.25
2018-09-06T18:50:50.257Z,15.78
2018-09-06T18:53:30.829Z,12.63
2018-09-06T18:56:11.578Z,22.75
2018-09-06T18:58:52.225Z,14.18
2018-09-06T19:01:32.917Z,22.80
2018-09-06T19:04:01.188Z,16.48
2018-09-06T19:06:41.405Z,45.30
2018-09-06T19:09:11.703Z,23.52
2018-09-06T19:11:52.925Z,14.05
2018-09-06T19:14:33.440Z,16.30
2018-09-06T19:17:01.683Z,18.42
2018-09-06T19:19:42.004Z,15.80
2018-09-06T19:22:22.472Z,15.20
2018-09-06T19:25:03.379Z,19.25
2018-09-06T19:27:44.665Z,18.70
2018-09-06T19:30:25.978Z,14.00
2018-09-06T19:32:54.436Z,15.15
2018-09-06T19:35:22.770Z,14.15
2018-09-06T19:38:03.518Z,13.50
2018-09-06T19:40:44.268Z,12.88
2018-09-06T19:43:24.937Z,15.20
2018-09-06T19:46:05.599Z,12.82
2018-09-06T19:48:46.333Z,13.75
2018-09-06T19:51:14.697Z,12.85
2018-09-06T19:53:43.006Z,20.85
2018-09-06T19:56:23.445Z,27.70
2018-09-06T19:59:04.076Z,15.38
2018-09-06T20:01:44.738Z,14.93
2018-09-06T20:04:25.230Z,13.75
2018-09-06T20:07:06.950Z,13.15
2018-09-06T20:09:47.474Z,15.23
2018-09-06T20:12:28.079Z,14.18
2018-09-06T20:14:56.858Z,14.80
2018-09-06T20:17:37.644Z,15.75
2018-09-06T20:20:07.369Z,12.93
2018-09-06T20:22:47.799Z,13.13
2018-09-06T20:25:28.662Z,14.58
2018-09-06T20:28:09.109Z,12.95
2018-09-06T20:30:49.551Z,12.10
2018-09-06T20:33:30.243Z,16.23
2018-09-06T20:36:10.691Z,13.08
2018-09-06T20:38:51.321Z,15.35
2018-09-06T20:41:19.775Z,15.13
2018-09-06T20:44:00.631Z,13.18
2018-09-06T20:46:41.270Z,13.93
2018-09-06T20:49:21.981Z,21.57
2018-09-06T20:52:02.553Z,12.80
2018-09-06T20:54:43.167Z,14.65
2018-09-06T20:57:23.728Z,15.75
2018-09-06T21:00:04.407Z,14.43
2018-09-06T21:02:45.047Z,12.05
2018-09-06T21:05:25.682Z,12.80
2018-09-06T21:08:06.887Z,14.85
2018-09-06T21:10:48.019Z,16.55
2018-09-06T21:13:28.452Z,13.60
2018-09-06T21:16:09.100Z,14.58
2018-09-06T21:18:50.921Z,14.40
2018-09-06T21:21:31.321Z,13.72
2018-09-06T21:24:11.891Z,15.48
2018-09-06T21:26:41.235Z,14.13
2018-09-06T21:29:22.321Z,14.00
2018-09-06T21:32:03.412Z,12.95
2018-09-06T21:34:32.636Z,17.37
2018-09-06T21:37:01.904Z,13.00
2018-09-06T21:39:31.580Z,15.28
2018-09-06T21:42:11.741Z,19.80
2018-09-06T21:44:40.145Z,15.10
2018-09-06T21:47:21.009Z,15.58
2018-09-06T21:50:01.829Z,13.68
2018-09-06T21:52:30.118Z,21.23
2018-09-06T21:55:11.001Z,15.15
2018-09-06T21:57:51.748Z,14.50
2018-09-06T22:00:21.076Z,15.08
2018-09-06T22:02:54.877Z,12.73
2018-09-06T22:05:35.909Z,19.60
2018-09-06T22:08:16.513Z,19.32
2018-09-06T22:10:56.912Z,16.75
2018-09-06T22:13:31.021Z,15.50
2018-09-06T22:16:11.360Z,16.12
2018-09-06T22:18:39.788Z,16.50
2018-09-06T22:21:20.658Z,13.85
2018-09-06T22:24:01.445Z,14.87
2018-09-06T22:26:42.136Z,15.48
2018-09-06T22:29:10.397Z,18.07
2018-09-06T22:31:39.988Z,17.07
2018-09-06T22:34:20.164Z,14.05
2018-09-06T22:36:48.389Z,14.15
2018-09-06T22:39:16.653Z,14.98
2018-09-06T22:41:57.569Z,15.28
2018-09-06T22:44:25.834Z,17.30
2018-09-06T22:47:07.207Z,18.37
2018-09-06T22:49:47.610Z,15.35
2018-09-06T22:52:28.247Z,16.60
2018-09-06T22:55:02.876Z,16.20
2018-09-06T22:57:35.172Z,20.70
2018-09-06T23:00:17.421Z,15.43
2018-09-06T23:02:54.427Z,15.68
2018-09-06T23:05:35.596Z,15.63
2018-09-06T23:08:15.985Z,15.20
2018-09-06T23:10:56.597Z,17.23
2018-09-06T23:13:37.201Z,16.27
2018-09-06T23:16:05.489Z,16.95
2018-09-06T23:18:33.785Z,14.90
2018-09-06T23:21:02.048Z,15.63
2018-09-06T23:23:36.711Z,16.70
2018-09-06T23:26:05.142Z,16.87
2018-09-06T23:28:39.281Z,17.27
2018-09-06T23:31:07.699Z,17.15
2018-09-06T23:33:35.940Z,16.05
2018-09-06T23:36:04.151Z,16.00
2018-09-06T23:38:33.420Z,16.97
2018-09-06T23:41:03.102Z,15.38
2018-09-06T23:43:44.126Z,17.55
2018-09-06T23:46:12.397Z,19.52
2018-09-06T23:48:48.576Z,22.58
2018-09-06T23:51:29.417Z,20.05
2018-09-06T23:54:09.881Z,16.90
2018-09-06T23:56:38.171Z,16.80
2018-09-06T23:59:19.202Z,16.10
